Time;durP1;ratioP1;P1;durP2;ratioP2;P2;SDS_P1;SDS_P2;PMS_P1;PMS_P2;Temp;Humidity;BMP_temperature;BMP_pressure;BME280_temperature;BME280_humidity;BME280_pressure;Samples;Min_cycle;Max_cycle;Signal;HPM_P1;HPM_P2
2021/05/05 00:00:50;;;;;;;5.13;1.60;;;7.70;92.90;;;;;;5067268;28;20464;-86
2021/05/05 00:03:30;;;;;;;1.63;1.10;;;7.70;92.10;;;;;;5068328;28;20506;-86
2021/05/05 00:06:09;;;;;;;2.50;0.70;;;7.70;91.90;;;;;;5090944;28;20513;-87
2021/05/05 00:09:01;;;;;;;1.03;0.90;;;7.70;92.60;;;;;;5084936;28;20440;-88
2021/05/05 00:11:41;;;;;;;1.57;1.03;;;7.70;93.70;;;;;;5072361;28;20456;-87
2021/05/05 00:14:26;;;;;;;1.73;1.30;;;7.70;93.50;;;;;;5065591;28;20485;-87
2021/05/05 00:17:09;;;;;;;1.70;0.83;;;7.70;94.10;;;;;;5080005;28;20438;-87
2021/05/05 00:19:49;;;;;;;2.53;1.00;;;7.80;94.00;;;;;;5087340;28;21152;-87
2021/05/05 00:22:29;;;;;;;2.10;0.80;;;7.70;93.80;;;;;;5086263;28;20460;-87
2021/05/05 00:25:23;;;;;;;4.23;1.10;;;7.70;94.10;;;;;;5077667;28;20511;-87
2021/05/05 00:28:04;;;;;;;1.27;0.67;;;7.70;94.10;;;;;;5077568;28;20484;-87
2021/05/05 00:30:45;;;;;;;2.00;0.90;;;7.70;95.00;;;;;;5078177;28;20445;-87
2021/05/05 00:33:25;;;;;;;2.60;0.80;;;7.70;95.40;;;;;;5077455;28;20530;-85
2021/05/05 00:38:55;;;;;;;2.03;0.90;;;7.60;96.00;;;;;;5084857;28;20493;-87
2021/05/05 00:41:45;;;;;;;2.27;1.20;;;7.60;96.60;;;;;;5087153;28;20476;-87
2021/05/05 00:44:25;;;;;;;1.60;0.73;;;7.60;97.20;;;;;;5087141;28;20466;-86
2021/05/05 00:47:06;;;;;;;1.57;1.03;;;7.60;95.80;;;;;;5089379;28;20520;-86
2021/05/05 00:49:46;;;;;;;4.20;1.27;;;7.50;97.10;;;;;;5102356;28;20470;-86
2021/05/05 00:52:22;;;;;;;2.20;0.67;;;7.60;99.00;;;;;;5089560;28;20449;-87
2021/05/05 00:54:58;;;;;;;1.70;1.00;;;7.50;98.20;;;;;;5092606;28;20455;-86
2021/05/05 00:57:45;;;;;;;1.07;0.70;;;7.60;98.70;;;;;;5089359;28;20449;-87
2021/05/05 01:00:45;;;;;;;4.10;1.20;;;7.50;99.90;;;;;;5083481;28;20464;-87
2021/05/05 01:03:28;;;;;;;5.13;1.20;;;7.50;99.90;;;;;;5082681;28;20476;-88
2021/05/05 01:06:18;;;;;;;2.87;1.20;;;7.40;99.90;;;;;;5075805;28;20488;-87
2021/05/05 01:08:59;;;;;;;1.50;1.00;;;7.40;99.90;;;;;;5067210;28;20461;-87
2021/05/05 01:11:46;;;;;;;1.13;1.03;;;7.40;99.90;;;;;;5079716;28;20538;-87
2021/05/05 01:14:27;;;;;;;6.73;1.40;;;7.40;99.90;;;;;;5074510;28;20499;-88
2021/05/05 01:17:17;;;;;;;2.33;1.20;;;7.40;99.90;;;;;;5089335;28;20472;-87
2021/05/05 01:19:57;;;;;;;2.93;1.40;;;7.40;99.90;;;;;;5091006;28;20493;-87
2021/05/05 01:25:30;;;;;;;2.97;1.50;;;7.30;99.90;;;;;;5075234;28;20472;-87
2021/05/05 01:28:18;;;;;;;2.80;1.57;;;7.30;99.90;;;;;;5077824;28;20993;-87
2021/05/05 01:30:50;;;;;;;2.83;1.40;;;7.30;99.90;;;;;;5069251;28;20483;-87
2021/05/05 01:33:30;;;;;;;2.50;1.20;;;7.30;99.90;;;;;;5074790;28;20481;-87
2021/05/05 01:36:08;;;;;;;1.40;1.07;;;7.30;99.90;;;;;;5077694;28;20450;-86
2021/05/05 01:41:42;;;;;;;2.27;1.13;;;7.30;99.90;;;;;;5066724;28;20515;-87
2021/05/05 01:44:22;;;;;;;4.37;1.50;;;7.20;99.90;;;;;;5076125;28;20437;-87
2021/05/05 01:47:19;;;;;;;3.27;1.37;;;7.20;99.90;;;;;;5076249;28;20477;-86
2021/05/05 01:50:06;;;;;;;3.73;1.47;;;7.20;99.90;;;;;;5081697;28;20448;-86
2021/05/05 01:52:43;;;;;;;3.00;1.10;;;7.20;99.90;;;;;;5073170;28;20475;-86
2021/05/05 01:55:28;;;;;;;4.10;1.33;;;7.20;99.90;;;;;;5080386;28;20494;-85
2021/05/05 01:58:09;;;;;;;2.27;1.37;;;7.20;99.90;;;;;;5073045;28;20453;-86
2021/05/05 02:00:49;;;;;;;3.33;1.93;;;7.20;99.90;;;;;;5074350;28;20524;-86
2021/05/05 02:03:29;;;;;;;4.07;1.97;;;7.10;99.90;;;;;;5080753;28;20525;-86
2021/05/05 02:06:09;;;;;;;6.30;1.67;;;7.10;99.90;;;;;;5076018;28;20467;-86
2021/05/05 02:08:49;;;;;;;4.13;1.50;;;7.10;99.90;;;;;;5076510;28;20456;-86
2021/05/05 02:11:36;;;;;;;2.80;1.83;;;7.20;99.90;;;;;;5079897;28;20474;-87
2021/05/05 02:14:11;;;;;;;2.30;1.53;;;7.10;99.90;;;;;;5070336;28;20537;-86
2021/05/05 02:16:56;;;;;;;2.90;1.33;;;7.10;99.90;;;;;;5070308;28;20478;-86
2021/05/05 02:19:36;;;;;;;4.10;2.17;;;7.00;99.90;;;;;;5077042;28;20810;-87
2021/05/05 02:22:16;;;;;;;2.10;1.10;;;7.00;99.90;;;;;;5077309;28;20456;-86
2021/05/05 02:24:56;;;;;;;4.10;1.50;;;7.00;99.90;;;;;;5075053;28;20487;-88
2021/05/05 02:27:41;;;;;;;4.03;1.60;;;7.00;99.90;;;;;;5080736;28;20457;-87
2021/05/05 02:30:23;;;;;;;2.80;1.93;;;7.00;99.90;;;;;;5066920;28;20456;-87
2021/05/05 02:33:04;;;;;;;4.93;2.00;;;7.00;99.90;;;;;;5077641;28;20464;-87
2021/05/05 02:35:53;;;;;;;2.97;1.60;;;7.00;99.90;;;;;;5074685;28;20456;-86
2021/05/05 02:41:20;;;;;;;2.33;1.83;;;7.10;99.90;;;;;;5078636;28;20673;-86
2021/05/05 02:46:52;;;;;;;3.37;1.80;;;7.10;99.90;;;;;;5076043;28;20873;-87
2021/05/05 02:49:28;;;;;;;2.30;1.70;;;7.10;99.90;;;;;;5078128;28;20445;-87
2021/05/05 02:52:04;;;;;;;4.67;1.67;;;7.00;99.90;;;;;;5089831;28;20464;-86
2021/05/05 02:54:44;;;;;;;4.00;1.67;;;7.00;99.90;;;;;;5070382;28;20493;-87
2021/05/05 03:00:21;;;;;;;2.30;1.50;;;7.10;99.90;;;;;;5079783;28;20452;-86
2021/05/05 03:02:57;;;;;;;4.73;1.60;;;7.00;99.90;;;;;;5075844;28;20444;-87
2021/05/05 03:05:38;;;;;;;2.37;1.70;;;7.00;99.90;;;;;;5095552;28;20439;-88
2021/05/05 03:08:18;;;;;;;2.00;1.80;;;7.00;99.90;;;;;;5085583;28;21054;-88
2021/05/05 03:10:59;;;;;;;4.87;1.90;;;6.90;99.90;;;;;;5084749;28;20440;-87
2021/05/05 03:13:30;;;;;;;5.53;1.73;;;7.00;99.90;;;;;;5082653;28;20478;-87
2021/05/05 03:16:15;;;;;;;1.70;1.60;;;7.00;99.90;;;;;;5072821;28;20463;-87
2021/05/05 03:18:56;;;;;;;2.50;1.47;;;6.90;99.90;;;;;;5067896;28;20448;-88
2021/05/05 03:21:38;;;;;;;4.20;1.80;;;7.00;99.90;;;;;;5077157;28;20463;-87
2021/05/05 03:24:19;;;;;;;2.20;1.50;;;6.90;99.90;;;;;;5076648;28;20500;-87
2021/05/05 03:26:54;;;;;;;2.00;1.73;;;6.90;99.90;;;;;;5077295;28;20473;-87
2021/05/05 03:29:29;;;;;;;3.43;1.80;;;6.80;99.90;;;;;;5068030;28;20888;-87
2021/05/05 03:32:11;;;;;;;5.13;1.93;;;7.00;99.90;;;;;;5072725;28;20478;-87
2021/05/05 03:34:47;;;;;;;3.87;1.73;;;6.90;99.90;;;;;;5078496;28;20498;-86
2021/05/05 03:37:21;;;;;;;5.93;1.70;;;6.90;99.90;;;;;;5077155;28;20843;-86
2021/05/05 03:40:02;;;;;;;1.77;1.60;;;6.90;99.90;;;;;;5076591;28;20468;-86
2021/05/05 03:42:43;;;;;;;2.80;1.73;;;6.90;99.90;;;;;;5075832;28;20541;-86
2021/05/05 03:45:40;;;;;;;7.03;2.10;;;6.90;99.90;;;;;;5080174;28;20463;-87
2021/05/05 03:48:27;;;;;;;2.83;1.93;;;7.00;99.90;;;;;;5090838;28;20545;-86
2021/05/05 03:51:08;;;;;;;3.40;2.30;;;6.80;99.90;;;;;;5087493;28;20460;-85
2021/05/05 03:53:48;;;;;;;4.23;2.00;;;6.90;99.90;;;;;;5088901;28;20499;-88
2021/05/05 03:56:24;;;;;;;4.47;2.33;;;6.80;99.90;;;;;;5088800;28;20459;-86
2021/05/05 03:58:59;;;;;;;3.33;2.07;;;6.80;99.90;;;;;;5074033;28;20532;-86
2021/05/05 04:01:43;;;;;;;3.07;1.70;;;6.80;99.90;;;;;;5080964;28;20452;-86
2021/05/05 04:04:19;;;;;;;4.07;2.07;;;6.80;99.90;;;;;;5087368;28;20537;-86
2021/05/05 04:07:02;;;;;;;3.83;2.20;;;6.80;99.90;;;;;;5076377;28;20452;-87
2021/05/05 04:09:50;;;;;;;2.47;1.80;;;6.70;99.90;;;;;;5079521;28;20456;-85
2021/05/05 04:12:30;;;;;;;2.03;1.73;;;6.80;99.90;;;;;;5079233;28;20479;-87
2021/05/05 04:15:10;;;;;;;2.23;1.77;;;6.70;99.90;;;;;;5084839;28;20952;-86
2021/05/05 04:17:50;;;;;;;2.60;1.77;;;6.80;99.90;;;;;;5075490;28;20546;-86
2021/05/05 04:23:13;;;;;;;7.37;2.10;;;6.80;99.90;;;;;;5081603;28;20474;-87
2021/05/05 04:25:54;;;;;;;2.80;1.83;;;6.80;99.90;;;;;;5077836;28;20548;-86
2021/05/05 04:28:29;;;;;;;3.20;2.03;;;6.80;99.90;;;;;;5078174;28;20457;-85
2021/05/05 04:31:04;;;;;;;3.17;2.10;;;6.80;99.90;;;;;;5086409;28;20456;-82
2021/05/05 04:33:41;;;;;;;2.70;1.77;;;6.90;99.90;;;;;;5085607;28;20471;-82
2021/05/05 04:36:26;;;;;;;2.43;1.83;;;6.90;99.90;;;;;;5087834;28;20447;-82
2021/05/05 04:39:02;;;;;;;3.23;2.10;;;7.00;99.90;;;;;;5076269;28;20437;-83
2021/05/05 04:41:42;;;;;;;2.47;1.80;;;7.00;99.90;;;;;;5078461;28;20451;-83
2021/05/05 04:44:19;;;;;;;5.83;2.13;;;7.00;99.90;;;;;;5074096;28;20457;-84
2021/05/05 04:46:54;;;;;;;2.20;1.90;;;7.10;99.90;;;;;;5068965;28;20487;-84
2021/05/05 04:49:29;;;;;;;3.57;1.90;;;7.20;99.90;;;;;;5068146;28;20491;-83
2021/05/05 04:52:04;;;;;;;2.80;1.87;;;7.10;99.90;;;;;;5084219;28;20454;-84
2021/05/05 04:54:36;;;;;;;3.20;2.00;;;7.10;99.90;;;;;;5075943;28;20468;-83
2021/05/05 04:57:13;;;;;;;5.27;2.40;;;7.10;99.90;;;;;;5083402;28;20468;-84
2021/05/05 04:59:48;;;;;;;2.63;1.73;;;7.10;99.90;;;;;;5074067;28;20495;-84
2021/05/05 05:02:28;;;;;;;3.43;1.93;;;7.10;99.90;;;;;;5075649;28;20880;-83
2021/05/05 05:05:03;;;;;;;4.83;2.00;;;7.20;99.90;;;;;;5081905;28;20503;-83
2021/05/05 05:07:49;;;;;;;2.20;1.83;;;7.30;99.90;;;;;;5085024;28;20484;-84
2021/05/05 05:10:24;;;;;;;3.10;1.70;;;7.20;99.90;;;;;;5080053;28;20459;-84
2021/05/05 05:13:00;;;;;;;3.17;1.80;;;7.40;99.90;;;;;;5083185;28;20462;-84
2021/05/05 05:15:32;;;;;;;3.67;2.27;;;7.50;99.90;;;;;;5087107;28;20484;-83
2021/05/05 05:18:08;;;;;;;3.07;2.43;;;7.60;99.50;;;;;;5076065;28;20452;-83
2021/05/05 05:20:43;;;;;;;2.90;2.60;;;7.60;99.90;;;;;;5080708;28;20471;-84
2021/05/05 05:23:19;;;;;;;3.00;2.40;;;7.60;99.90;;;;;;5079995;28;20460;-83
2021/05/05 05:25:53;;;;;;;4.20;2.60;;;7.70;99.90;;;;;;5076439;28;20473;-86
2021/05/05 05:28:34;;;;;;;2.23;1.83;;;7.70;98.30;;;;;;5082323;28;20512;-84
2021/05/05 05:31:14;;;;;;;3.87;2.43;;;7.80;98.00;;;;;;5079600;28;20518;-86
2021/05/05 05:33:50;;;;;;;4.25;3.85;;;7.80;98.10;;;;;;5079757;28;20461;-83
2021/05/05 05:36:30;;;;;;;3.00;1.97;;;7.70;97.80;;;;;;5085206;28;20575;-84
2021/05/05 05:39:06;;;;;;;3.97;2.40;;;7.50;99.30;;;;;;5082178;28;20461;-84
2021/05/05 05:41:41;;;;;;;2.90;2.50;;;7.50;99.90;;;;;;5077559;28;20492;-85
2021/05/05 05:44:16;;;;;;;3.67;2.53;;;7.50;99.90;;;;;;5082445;28;20558;-84
2021/05/05 05:46:48;;;;;;;3.53;2.07;;;7.60;99.90;;;;;;5085996;28;20496;-83
2021/05/05 05:49:22;;;;;;;8.97;2.50;;;7.70;98.00;;;;;;5084713;28;20568;-84
2021/05/05 05:51:57;;;;;;;2.73;2.00;;;7.70;97.50;;;;;;5091410;28;20460;-84
2021/05/05 05:54:34;;;;;;;2.80;2.20;;;7.60;98.60;;;;;;5086623;28;20543;-83
2021/05/05 05:57:09;;;;;;;5.53;2.37;;;7.70;99.20;;;;;;5074527;28;20502;-84
2021/05/05 05:59:44;;;;;;;5.67;2.77;;;7.70;98.20;;;;;;5081907;28;20504;-84
2021/05/05 06:02:19;;;;;;;4.93;2.53;;;7.80;96.60;;;;;;5080094;28;20493;-83
2021/05/05 06:04:53;;;;;;;3.60;2.40;;;8.00;95.40;;;;;;5079947;28;20459;-84
2021/05/05 06:07:28;;;;;;;4.90;2.47;;;8.30;94.10;;;;;;5084442;28;20440;-83
2021/05/05 06:10:04;;;;;;;2.27;2.07;;;8.60;91.90;;;;;;5083689;28;20524;-84
2021/05/05 06:12:39;;;;;;;2.40;1.83;;;8.70;90.50;;;;;;5081967;28;20448;-84
2021/05/05 06:15:15;;;;;;;3.27;2.00;;;8.70;90.40;;;;;;5089042;28;20494;-85
2021/05/05 06:17:50;;;;;;;2.90;1.87;;;8.50;91.10;;;;;;5092122;28;20478;-84
2021/05/05 06:20:40;;;;;;;4.50;2.30;;;8.40;91.50;;;;;;5092487;28;20508;-83
2021/05/05 06:23:15;;;;;;;3.73;2.30;;;8.30;91.80;;;;;;5088335;28;20480;-82
2021/05/05 06:25:51;;;;;;;3.07;2.77;;;8.20;91.80;;;;;;5083836;28;20519;-84
2021/05/05 06:28:23;;;;;;;7.17;2.73;;;8.50;91.40;;;;;;5079107;28;20449;-84
2021/05/05 06:30:58;;;;;;;3.10;2.17;;;8.80;91.30;;;;;;5083559;28;20459;-84
2021/05/05 06:33:33;;;;;;;5.93;2.70;;;9.10;90.00;;;;;;5083106;28;20482;-84
2021/05/05 06:39:01;;;;;;;4.00;2.20;;;9.20;87.10;;;;;;5079135;28;20441;-83
2021/05/05 06:41:37;;;;;;;2.73;2.47;;;9.20;87.10;;;;;;5082794;28;20452;-83
2021/05/05 06:44:12;;;;;;;2.70;2.10;;;9.00;88.30;;;;;;5084934;28;20479;-84
2021/05/05 06:46:50;;;;;;;2.87;2.60;;;9.00;88.10;;;;;;5076121;28;20486;-84
2021/05/05 06:49:34;;;;;;;6.83;2.43;;;8.90;85.60;;;;;;5088035;28;20452;-86
2021/05/05 06:52:09;;;;;;;4.07;2.83;;;9.20;85.50;;;;;;5082291;28;21026;-84
2021/05/05 06:54:44;;;;;;;7.90;3.10;;;9.70;82.00;;;;;;5082607;28;20482;-83
2021/05/05 06:57:20;;;;;;;3.73;2.33;;;9.40;83.00;;;;;;5079940;28;20452;-82
2021/05/05 06:59:55;;;;;;;2.93;2.33;;;9.20;84.10;;;;;;5080241;28;20449;-82
2021/05/05 07:02:30;;;;;;;5.33;2.53;;;9.40;84.70;;;;;;5076587;28;20543;-81
2021/05/05 07:05:04;;;;;;;4.50;3.23;;;9.50;82.60;;;;;;5085194;28;20863;-84
2021/05/05 07:07:39;;;;;;;3.47;2.60;;;9.40;84.70;;;;;;5084567;28;20460;-83
2021/05/05 07:10:16;;;;;;;4.17;2.80;;;9.30;85.40;;;;;;5084313;28;20536;-81
2021/05/05 07:12:51;;;;;;;2.87;2.43;;;9.30;84.80;;;;;;5088964;28;20443;-86
2021/05/05 07:15:26;;;;;;;4.30;2.37;;;9.00;77.70;;;;;;5079603;28;20552;-79
2021/05/05 07:18:01;;;;;;;2.73;2.40;;;8.70;79.40;;;;;;5082683;28;20484;-79
2021/05/05 07:20:36;;;;;;;4.37;2.73;;;9.00;79.00;;;;;;5074622;28;20468;-83
2021/05/05 07:23:11;;;;;;;5.73;2.93;;;9.20;78.10;;;;;;5070450;28;20454;-84
2021/05/05 07:25:51;;;;;;;3.87;3.00;;;9.30;78.80;;;;;;5078077;28;20467;-80
2021/05/05 07:28:27;;;;;;;5.40;2.40;;;9.30;77.10;;;;;;5079599;28;20445;-82
2021/05/05 07:31:02;;;;;;;3.67;2.70;;;9.00;77.30;;;;;;5079092;28;20489;-83
2021/05/05 07:33:37;;;;;;;5.97;2.87;;;8.90;76.30;;;;;;5079363;28;20464;-82
2021/05/05 07:36:14;;;;;;;6.73;3.30;;;8.80;76.70;;;;;;5095047;28;20460;-81
2021/05/05 07:47:36;;;;;;;8.33;2.80;;;8.70;76.30;;;;;;5058534;28;20451;-88
2021/05/05 07:50:12;;;;;;;3.30;2.47;;;8.90;76.20;;;;;;5078313;28;20493;-87
2021/05/05 07:52:52;;;;;;;5.30;2.77;;;9.00;74.90;;;;;;5082039;28;20856;-86
2021/05/05 07:55:28;;;;;;;3.83;3.40;;;9.10;74.30;;;;;;5079515;28;20995;-86
2021/05/05 07:58:11;;;;;;;5.07;3.10;;;9.40;75.00;;;;;;5076647;28;20818;-86
2021/05/05 08:00:48;;;;;;;5.57;3.33;;;9.70;74.60;;;;;;5077972;28;20461;-83
2021/05/05 08:03:28;;;;;;;5.80;3.33;;;9.50;74.40;;;;;;5081230;28;20490;-86
2021/05/05 08:06:04;;;;;;;4.80;3.80;;;9.80;75.20;;;;;;5079968;28;20464;-84
2021/05/05 08:08:44;;;;;;;5.73;2.90;;;10.40;73.00;;;;;;5083415;28;20456;-85
2021/05/05 08:11:18;;;;;;;3.43;2.77;;;10.60;69.20;;;;;;5083093;28;20466;-84
2021/05/05 08:14:26;;;;;;;3.87;2.70;;;10.50;68.10;;;;;;5082792;28;20518;-85
2021/05/05 08:17:07;;;;;;;4.97;2.50;;;10.80;66.60;;;;;;5068424;28;20900;-85
2021/05/05 08:19:43;;;;;;;5.37;2.67;;;11.00;65.50;;;;;;5085520;28;20445;-86
2021/05/05 08:22:18;;;;;;;2.50;1.90;;;11.20;62.10;;;;;;5084347;28;20454;-84
2021/05/05 08:28:22;;;;;;;2.97;1.90;;;10.70;57.70;;;;;;5024123;28;20582;-84
2021/05/05 08:31:04;;;;;;;2.70;2.10;;;11.00;54.80;;;;;;5025959;28;20451;-85
2021/05/05 08:36:32;;;;;;;4.22;2.25;;;10.60;53.10;;;;;;5077035;28;20461;-79
2021/05/05 08:39:13;;;;;;;2.60;1.67;;;10.10;52.80;;;;;;5090764;28;20214;-80
2021/05/05 08:41:48;;;;;;;2.80;2.00;;;9.90;54.30;;;;;;5086484;28;20456;-80
2021/05/05 08:47:09;;;;;;;2.10;1.63;;;9.20;56.70;;;;;;5079527;28;20190;-85
2021/05/05 08:49:53;;;;;;;4.27;1.60;;;9.00;55.90;;;;;;5084618;28;20456;-85
2021/05/05 08:52:37;;;;;;;2.50;1.90;;;9.20;56.30;;;;;;5084992;28;20501;-82
2021/05/05 08:55:17;;;;;;;5.80;2.23;;;9.60;56.00;;;;;;5093650;28;20475;-82
2021/05/05 08:57:51;;;;;;;3.03;2.10;;;9.50;55.10;;;;;;5084633;28;20806;-79
2021/05/05 09:00:25;;;;;;;4.07;2.00;;;9.40;55.70;;;;;;5086071;28;20456;-81
2021/05/05 09:03:02;;;;;;;6.10;2.43;;;9.40;54.60;;;;;;5085220;28;20455;-85
2021/05/05 09:06:04;;;;;;;3.40;1.80;;;9.60;53.60;;;;;;5094970;28;20445;-81
2021/05/05 09:08:49;;;;;;;5.17;1.80;;;10.20;53.20;;;;;;5088843;28;20445;-86
2021/05/05 09:11:50;;;;;;;1.63;1.30;;;10.10;50.60;;;;;;5081450;28;20975;-81
2021/05/05 09:14:28;;;;;;;3.60;1.60;;;10.40;51.60;;;;;;5085853;28;20626;-81
2021/05/05 09:17:09;;;;;;;5.53;1.80;;;10.60;49.80;;;;;;5085594;28;20461;-79
2021/05/05 09:19:53;;;;;;;3.00;1.63;;;10.70;50.40;;;;;;5087178;28;20461;-82
2021/05/05 09:22:47;;;;;;;5.63;1.53;;;11.30;47.30;;;;;;5098912;28;20518;-82
2021/05/05 09:31:15;;;;;;;3.07;1.37;;;11.60;46.50;;;;;;5078074;28;20445;-86
2021/05/05 09:34:03;;;;;;;1.43;1.33;;;10.50;44.70;;;;;;5077405;28;20465;-80
2021/05/05 09:36:44;;;;;;;4.28;1.80;;;10.00;45.70;;;;;;5091062;28;20422;-85
2021/05/05 09:39:25;;;;;;;4.03;1.57;;;10.10;46.40;;;;;;5079514;28;20617;-91
2021/05/05 09:42:12;;;;;;;3.87;1.60;;;10.20;47.30;;;;;;5080099;28;20455;-86
2021/05/05 09:45:07;;;;;;;3.63;1.15;;;10.60;47.30;;;;;;5070731;28;20478;-81
2021/05/05 09:48:00;;;;;;;2.93;1.50;;;10.90;46.50;;;;;;5078705;28;20191;-81
2021/05/05 09:50:48;;;;;;;2.93;1.33;;;10.90;45.70;;;;;;5082950;28;20453;-82
2021/05/05 09:53:38;;;;;;;4.00;1.57;;;11.50;45.60;;;;;;5075480;28;20464;-87
2021/05/05 09:56:16;;;;;;;4.37;1.23;;;12.00;44.90;;;;;;5066462;28;20484;-77
2021/05/05 09:58:51;;;;;;;5.40;1.23;;;12.30;44.30;;;;;;5079719;28;20466;-77
2021/05/05 10:01:25;;;;;;;1.37;0.80;;;12.70;44.60;;;;;;5079163;28;20464;-82
2021/05/05 10:04:03;;;;;;;2.27;1.27;;;12.90;43.20;;;;;;5081495;28;20932;-78
2021/05/05 10:06:40;;;;;;;3.10;1.20;;;12.70;42.80;;;;;;5077356;28;20539;-79
2021/05/05 10:09:16;;;;;;;2.87;1.33;;;13.00;42.60;;;;;;5072797;28;20556;-77
2021/05/05 10:11:53;;;;;;;3.90;1.30;;;13.60;42.40;;;;;;5071482;28;21018;-77
2021/05/05 10:14:28;;;;;;;1.03;0.93;;;13.40;42.20;;;;;;5066789;28;20492;-80
2021/05/05 10:17:04;;;;;;;2.00;1.57;;;13.50;42.30;;;;;;5076110;28;20444;-81
2021/05/05 10:19:43;;;;;;;8.30;2.03;;;13.20;41.20;;;;;;5079292;28;20456;-79
2021/05/05 10:22:20;;;;;;;2.67;1.30;;;12.40;41.60;;;;;;5072209;28;20476;-81
2021/05/05 10:24:56;;;;;;;1.50;1.40;;;12.70;42.30;;;;;;5075513;28;20470;-81
2021/05/05 10:27:33;;;;;;;3.47;1.10;;;12.90;42.60;;;;;;5080355;28;20442;-85
2021/05/05 10:30:07;;;;;;;4.10;1.33;;;12.50;42.00;;;;;;5077943;28;20505;-86
2021/05/05 10:32:47;;;;;;;1.90;1.43;;;11.70;42.40;;;;;;5080649;28;20491;-84
2021/05/05 10:35:22;;;;;;;3.27;1.37;;;;;;;;;;5080504;28;20465;-81
2021/05/05 10:37:57;;;;;;;3.40;1.50;;;;;;;;;;5074907;28;20465;-85
2021/05/05 10:40:32;;;;;;;1.67;1.17;;;;;;;;;;5071079;28;20525;-83
2021/05/05 10:43:06;;;;;;;4.07;1.77;;;;;;;;;;5078351;28;20453;-85
2021/05/05 10:45:44;;;;;;;1.90;1.33;;;12.80;41.10;;;;;;5080231;28;20441;-85
2021/05/05 10:48:28;;;;;;;3.30;1.30;;;12.50;41.20;;;;;;5076815;28;20460;-85
2021/05/05 10:51:04;;;;;;;1.93;1.10;;;12.50;40.50;;;;;;5080201;28;20450;-85
2021/05/05 10:53:58;;;;;;;3.10;1.30;;;12.20;40.80;;;;;;5083799;28;20464;-85
2021/05/05 10:56:38;;;;;;;2.07;1.23;;;12.00;40.40;;;;;;5086682;28;20806;-83
2021/05/05 10:59:25;;;;;;;2.13;1.30;;;11.90;40.60;;;;;;5074968;28;20544;-83
2021/05/05 11:02:09;;;;;;;3.03;1.20;;;12.30;41.40;;;;;;5070509;28;20535;-84
2021/05/05 11:05:10;;;;;;;4.53;1.30;;;12.50;42.20;;;;;;5083353;28;20553;-83
2021/05/05 11:08:05;;;;;;;7.13;1.57;;;12.90;42.50;;;;;;5086732;28;20848;-85
2021/05/05 11:11:02;;;;;;;5.20;1.43;;;13.30;41.90;;;;;;5087459;28;20968;-83
2021/05/05 11:13:51;;;;;;;4.83;1.90;;;12.70;41.90;;;;;;5081396;28;20464;-81
2021/05/05 11:16:27;;;;;;;2.67;1.37;;;12.90;42.80;;;;;;5078525;28;20457;-82
2021/05/05 11:19:07;;;;;;;3.13;1.60;;;12.40;42.80;;;;;;5084215;28;20453;-81
2021/05/05 11:21:48;;;;;;;5.70;2.40;;;12.20;43.10;;;;;;5077853;28;20575;-79
2021/05/05 11:24:40;;;;;;;2.63;1.40;;;12.00;45.70;;;;;;5085719;28;20535;-82
2021/05/05 11:27:18;;;;;;;2.17;1.80;;;12.00;45.10;;;;;;5083907;28;22445;-82
2021/05/05 11:29:59;;;;;;;2.23;1.70;;;12.30;44.60;;;;;;5082427;28;20457;-79
2021/05/05 11:33:02;;;;;;;7.43;1.50;;;12.30;45.30;;;;;;5084070;28;20454;-82
2021/05/05 11:35:38;;;;;;;6.07;1.47;;;12.40;44.10;;;;;;5075113;28;20472;-80
2021/05/05 11:38:22;;;;;;;1.60;1.00;;;11.90;43.20;;;;;;5093914;28;20445;-80
2021/05/05 11:41:05;;;;;;;2.40;0.90;;;11.70;44.00;;;;;;5092232;28;20449;-79
2021/05/05 11:43:46;;;;;;;1.10;0.97;;;11.90;44.50;;;;;;5090949;28;20468;-79
2021/05/05 11:46:25;;;;;;;3.10;1.10;;;11.70;42.50;;;;;;5089179;28;20464;-83
2021/05/05 11:49:01;;;;;;;2.53;1.10;;;11.70;42.80;;;;;;5096516;28;20464;-81
2021/05/05 11:51:36;;;;;;;4.23;1.30;;;12.20;44.20;;;;;;5084109;28;20445;-79
2021/05/05 11:54:17;;;;;;;4.43;1.40;;;12.70;43.70;;;;;;5083020;28;20471;-83
2021/05/05 11:57:08;;;;;;;2.63;1.10;;;12.60;42.50;;;;;;5085091;28;20479;-81
2021/05/05 11:59:42;;;;;;;4.67;1.50;;;12.50;42.50;;;;;;5077917;28;20499;-79
2021/05/05 12:02:17;;;;;;;6.60;1.10;;;12.20;42.50;;;;;;5082523;28;20448;-82
2021/05/05 12:04:54;;;;;;;4.40;1.40;;;10.40;46.40;;;;;;5088509;28;20449;-83
2021/05/05 12:07:31;;;;;;;2.37;1.23;;;6.60;99.90;;;;;;5082610;28;20441;-81
2021/05/05 12:10:08;;;;;;;2.97;1.50;;;5.60;99.90;;;;;;5072194;28;20458;-81
2021/05/05 12:12:43;;;;;;;1.80;1.03;;;5.20;99.90;;;;;;5080571;28;20515;-81
2021/05/05 12:15:27;;;;;;;1.27;1.17;;;5.10;99.90;;;;;;5090486;28;20488;-83
2021/05/05 12:18:06;;;;;;;1.20;1.10;;;4.90;99.90;;;;;;5084203;28;20518;-84
2021/05/05 12:20:43;;;;;;;1.73;1.53;;;4.80;99.90;;;;;;5077075;28;20455;-81
2021/05/05 12:23:18;;;;;;;1.53;1.23;;;5.20;99.90;;;;;;5080405;28;20463;-82
2021/05/05 12:25:53;;;;;;;1.60;1.50;;;6.00;99.90;;;;;;5080939;28;20554;-84
2021/05/05 12:28:28;;;;;;;2.33;1.53;;;7.10;99.90;;;;;;5083237;28;20503;-81
2021/05/05 12:31:03;;;;;;;2.40;1.53;;;7.80;99.90;;;;;;5080496;28;20467;-84
2021/05/05 12:33:42;;;;;;;2.70;1.70;;;7.80;99.90;;;;;;5071576;28;20440;-80
2021/05/05 12:36:21;;;;;;;1.80;1.40;;;8.30;99.90;;;;;;5069450;28;20507;-80
2021/05/05 12:38:59;;;;;;;2.70;1.60;;;8.50;99.90;;;;;;5076705;28;20527;-80
2021/05/05 12:41:44;;;;;;;1.33;1.10;;;8.90;99.90;;;;;;5079914;28;20464;-80
2021/05/05 12:44:20;;;;;;;1.87;1.47;;;9.30;96.00;;;;;;5076535;28;20453;-80
2021/05/05 12:47:01;;;;;;;0.87;0.83;;;9.40;88.30;;;;;;5076221;28;20452;-80
2021/05/05 12:49:38;;;;;;;1.63;1.10;;;9.30;84.60;;;;;;5075409;28;20430;-85
2021/05/05 12:52:32;;;;;;;4.90;1.23;;;9.10;80.70;;;;;;5086500;28;20428;-88
2021/05/05 12:55:20;;;;;;;1.10;1.00;;;9.10;77.60;;;;;;5081287;28;20476;-86
2021/05/05 12:58:23;;;;;;;1.30;1.00;;;8.80;76.90;;;;;;5087572;28;20927;-85
2021/05/05 13:01:10;;;;;;;1.13;1.03;;;8.80;76.70;;;;;;5080557;28;20504;-84
2021/05/05 13:03:51;;;;;;;0.90;0.90;;;8.60;73.00;;;;;;5085600;28;20454;-82
2021/05/05 13:06:43;;;;;;;1.20;1.10;;;8.80;73.80;;;;;;5078694;28;20449;-83
2021/05/05 13:09:36;;;;;;;2.10;1.10;;;8.60;70.40;;;;;;5074778;28;20533;-86
2021/05/05 13:12:25;;;;;;;1.60;1.30;;;8.50;71.00;;;;;;5076018;28;20528;-86
2021/05/05 13:15:08;;;;;;;1.23;1.13;;;8.60;70.10;;;;;;5074473;28;20499;-84
2021/05/05 13:30:30;;;;;;;2.53;1.70;;;10.10;63.10;;;;;;5068804;28;20506;-84
2021/05/05 13:36:08;;;;;;;3.00;1.20;;;10.20;61.50;;;;;;5075843;28;20484;-86
2021/05/05 13:38:48;;;;;;;1.87;1.50;;;10.80;60.10;;;;;;5077007;28;20456;-87
2021/05/05 13:41:23;;;;;;;2.33;1.77;;;11.30;57.90;;;;;;5078071;28;20437;-83
2021/05/05 13:44:07;;;;;;;2.83;1.47;;;11.80;58.00;;;;;;5081965;28;20923;-84
2021/05/05 13:49:32;;;;;;;2.30;1.37;;;12.70;56.10;;;;;;5078018;28;20457;-83
2021/05/05 13:52:13;;;;;;;4.77;1.67;;;12.00;53.80;;;;;;5075628;28;20456;-86
2021/05/05 13:54:48;;;;;;;2.00;1.33;;;11.90;54.40;;;;;;5076191;28;20488;-85
2021/05/05 13:57:24;;;;;;;1.90;1.47;;;12.70;53.90;;;;;;5071165;28;20501;-84
2021/05/05 14:00:13;;;;;;;2.10;1.30;;;12.60;53.00;;;;;;5070144;28;20451;-84
2021/05/05 14:02:48;;;;;;;4.83;1.10;;;12.80;54.30;;;;;;5081635;28;20820;-83
2021/05/05 14:05:23;;;;;;;2.93;1.50;;;12.90;52.90;;;;;;5072686;28;20453;-87
2021/05/05 14:07:58;;;;;;;3.37;1.37;;;13.00;51.90;;;;;;5076765;28;20534;-83
2021/05/05 14:10:38;;;;;;;1.30;1.20;;;12.70;54.00;;;;;;5072277;28;20487;-82
2021/05/05 14:13:13;;;;;;;1.47;1.37;;;13.10;51.90;;;;;;5080147;28;20451;-84
2021/05/05 14:15:50;;;;;;;5.50;1.40;;;13.20;50.80;;;;;;5080504;28;20484;-83
2021/05/05 14:18:27;;;;;;;1.63;1.20;;;13.40;49.60;;;;;;5079559;28;20449;-83
2021/05/05 14:21:07;;;;;;;1.63;1.17;;;13.00;48.10;;;;;;5081092;28;20449;-80
2021/05/05 14:23:42;;;;;;;1.27;0.90;;;13.00;48.40;;;;;;5076915;28;20481;-84
2021/05/05 14:26:18;;;;;;;1.38;1.27;;;13.70;48.60;;;;;;5075058;28;20553;-85
2021/05/05 14:28:53;;;;;;;1.47;1.30;;;12.80;47.40;;;;;;5076159;28;20183;-82
2021/05/05 14:31:29;;;;;;;4.30;1.37;;;12.30;47.90;;;;;;5081857;28;20456;-82
2021/05/05 14:34:04;;;;;;;1.60;1.27;;;12.00;48.30;;;;;;5084903;28;20497;-83
2021/05/05 14:36:39;;;;;;;2.00;1.10;;;12.00;48.60;;;;;;5082071;28;20433;-85
2021/05/05 14:39:20;;;;;;;4.87;1.90;;;11.60;47.30;;;;;;5080616;28;20468;-81
2021/05/05 14:41:55;;;;;;;2.07;1.30;;;11.70;47.70;;;;;;5080993;28;20449;-83
2021/05/05 14:44:43;;;;;;;1.20;1.10;;;11.80;48.30;;;;;;5083417;28;20440;-83
2021/05/05 14:50:11;;;;;;;1.90;0.97;;;11.90;48.20;;;;;;5072866;28;20458;-83
2021/05/05 14:52:45;;;;;;;1.13;0.93;;;11.60;47.50;;;;;;5077844;28;20458;-83
2021/05/05 14:55:21;;;;;;;1.00;0.90;;;11.70;47.80;;;;;;5084139;28;21116;-81
2021/05/05 14:57:59;;;;;;;0.70;0.57;;;11.90;46.60;;;;;;5079736;28;20464;-85
2021/05/05 15:00:35;;;;;;;1.40;0.60;;;12.00;47.40;;;;;;5073746;28;20441;-82
2021/05/05 15:03:12;;;;;;;3.40;0.70;;;12.20;47.00;;;;;;5073879;28;20484;-82
2021/05/05 15:05:48;;;;;;;0.90;0.70;;;11.80;45.80;;;;;;5084174;28;20464;-83
2021/05/05 15:08:25;;;;;;;1.23;0.83;;;11.40;46.20;;;;;;5078297;28;20523;-83